Time;durP1;ratioP1;P1;durP2;ratioP2;P2;SDS_P1;SDS_P2;PMS_P1;PMS_P2;Temp;Humidity;BMP_temperature;BMP_pressure;BME280_temperature;BME280_humidity;BME280_pressure;Samples;Min_cycle;Max_cycle;Signal;HPM_P1;HPM_P2
2022/05/01 00:00:56;;;;;;;4.68;4.18;;;;;;;17.64;45.32;101195.88;4949604;28;20047;-84
2022/05/01 00:03:32;;;;;;;3.67;3.38;;;;;;;17.37;46.07;101146.91;4933978;29;20071;-84
2022/05/01 00:06:00;;;;;;;5.13;3.63;;;;;;;17.78;46.08;101221.22;4933925;29;20047;-84
2022/05/01 00:08:27;;;;;;;4.63;4.00;;;;;;;17.66;45.70;101218.88;4933611;29;20066;-83
2022/05/01 00:10:55;;;;;;;6.35;4.57;;;;;;;17.55;46.31;101195.06;4950761;28;20057;-83
2022/05/01 00:13:40;;;;;;;5.07;4.35;;;;;;;17.77;46.96;101230.28;4936460;29;20055;-83
2022/05/01 00:16:08;;;;;;;3.80;3.50;;;;;;;17.03;47.40;101114.84;4933777;29;20054;-82
2022/05/01 00:18:36;;;;;;;6.22;3.88;;;;;;;17.57;47.52;101194.88;4933884;29;20145;-83
2022/05/01 00:21:03;;;;;;;4.43;4.03;;;;;;;17.64;47.00;101201.25;4950923;28;20665;-84
2022/05/01 00:23:29;;;;;;;4.80;4.20;;;;;;;17.56;47.54;101201.25;4933671;29;20047;-84
2022/05/01 00:25:58;;;;;;;8.25;4.10;;;;;;;17.63;47.03;101194.22;4931613;29;20465;-85
2022/05/01 00:28:25;;;;;;;6.88;4.07;;;;;;;17.26;47.12;101144.56;4914822;29;20105;-84
2022/05/01 00:30:51;;;;;;;5.07;3.83;;;;;;;17.66;47.16;101216.19;4931835;29;20086;-84
2022/05/01 00:38:49;;;;;;;4.57;3.85;;;;;;;17.47;47.95;101205.78;4931626;29;20059;-84
2022/05/01 00:41:16;;;;;;;7.28;4.38;;;;;;;17.59;47.83;101215.19;4914351;29;20059;-84
2022/05/01 00:44:09;;;;;;;4.40;4.00;;;;;;;17.64;48.45;101228.09;4914430;29;20058;-84
2022/05/01 00:46:41;;;;;;;4.72;4.18;;;;;;;17.63;47.72;101227.28;4914355;29;20436;-84
2022/05/01 00:49:18;;;;;;;5.45;4.35;;;;;;;17.18;47.71;101150.75;4916512;29;20071;-84
2022/05/01 00:51:54;;;;;;;5.50;3.95;;;;;;;17.45;48.83;101218.53;4916236;29;20051;-84
2022/05/01 00:54:26;;;;;;;8.27;4.28;;;;;;;16.33;49.06;101040.13;4926604;29;20052;-84
2022/05/01 00:56:53;;;;;;;;;;;;;;;17.51;49.21;101229.44;4914233;29;20048;-84
2022/05/01 00:59:21;;;;;;;5.32;4.45;;;;;;;17.40;48.91;101204.75;4934432;28;20349;-85
2022/05/01 01:01:50;;;;;;;4.40;4.00;;;;;;;17.38;48.45;101196.03;4946801;29;20059;-84
2022/05/01 01:04:17;;;;;;;6.25;4.40;;;;;;;17.50;48.46;101221.53;4933323;29;20063;-84
2022/05/01 01:06:44;;;;;;;6.50;4.38;;;;;;;17.19;48.39;101181.94;4933194;28;20094;-84
2022/05/01 01:09:11;;;;;;;4.35;3.95;;;;;;;17.39;48.31;101208.47;4949730;29;20417;-84
2022/05/01 01:11:40;;;;;;;8.75;4.68;;;;;;;17.25;47.74;101186.63;4932837;29;20043;-84
2022/05/01 01:14:07;;;;;;;8.85;5.32;;;;;;;17.42;48.20;101218.84;4932641;29;20159;-85
2022/05/01 01:16:36;;;;;;;5.53;4.38;;;;;;;17.34;48.81;101210.81;4932493;28;20628;-84
2022/05/01 01:19:04;;;;;;;4.78;4.28;;;;;;;17.35;49.74;101217.84;4932395;28;20066;-84
2022/05/01 01:21:31;;;;;;;7.00;4.40;;;;;;;17.22;49.85;101200.38;4932339;28;20077;-84
2022/05/01 01:23:58;;;;;;;5.95;4.25;;;;;;;17.37;49.94;101216.66;4932632;29;20053;-84
2022/05/01 01:26:24;;;;;;;7.78;4.55;;;;;;;17.39;49.14;101216.53;4927214;29;20070;-83
2022/05/01 01:28:54;;;;;;;5.47;4.65;;;;;;;16.76;49.14;101132.88;4913629;29;20052;-83
2022/05/01 01:31:40;;;;;;;6.25;4.63;;;;;;;17.03;49.82;101187.28;4914193;29;20708;-83
2022/05/01 01:34:12;;;;;;;4.63;4.22;;;;;;;16.57;49.88;101112.56;4917950;29;20463;-84
2022/05/01 01:36:40;;;;;;;6.53;3.88;;;;;;;16.92;50.16;101169.66;4933957;29;20047;-84
2022/05/01 01:39:07;;;;;;;9.20;4.68;;;;;;;16.94;49.52;101178.34;4930966;29;20517;-82
2022/05/01 01:41:35;;;;;;;4.88;3.92;;;;;;;16.91;49.54;101181.38;4931439;29;20055;-85
2022/05/01 01:44:03;;;;;;;6.88;4.32;;;;;;;17.05;50.21;101204.06;4912607;29;20407;-84
2022/05/01 01:46:32;;;;;;;19.02;16.85;;;;;;;17.08;49.96;101201.84;4912609;29;20506;-85
2022/05/01 01:48:59;;;;;;;7.20;5.97;;;;;;;16.92;49.32;101179.53;4912655;29;20162;-84
2022/05/01 01:51:26;;;;;;;7.50;4.88;;;;;;;16.73;49.97;101138.56;4913164;29;20051;-84
2022/05/01 01:53:53;;;;;;;5.78;4.28;;;;;;;17.15;48.13;101185.97;4941481;28;20058;-84
2022/05/01 01:56:20;;;;;;;7.10;5.28;;;;;;;17.05;47.88;101163.81;4948653;29;20445;-84
2022/05/01 01:58:47;;;;;;;4.38;3.97;;;;;;;17.12;47.75;101167.50;4948798;28;20043;-85
2022/05/01 02:01:14;;;;;;;4.88;4.10;;;;;;;16.83;47.48;101117.00;4948423;28;20047;-84
2022/05/01 02:03:40;;;;;;;3.88;3.47;;;;;;;17.32;46.67;101191.34;4939720;28;20059;-84
2022/05/01 02:06:09;;;;;;;6.05;4.22;;;;;;;17.10;48.77;101158.78;4944815;29;20068;-85
2022/05/01 02:08:36;;;;;;;5.95;4.38;;;;;;;17.20;49.15;101186.28;4913517;29;20053;-84
2022/05/01 02:11:04;;;;;;;4.32;3.85;;;;;;;17.00;48.82;101161.63;4922370;29;20051;-84
2022/05/01 02:13:34;;;;;;;8.02;4.80;;;;;;;16.98;49.22;101162.78;4932826;29;20082;-85
2022/05/01 02:16:01;;;;;;;4.28;3.83;;;;;;;16.95;48.40;101158.59;4949218;28;20047;-84
2022/05/01 02:18:28;;;;;;;4.28;3.90;;;;;;;16.91;48.56;101153.72;4931596;29;20067;-84
2022/05/01 02:23:40;;;;;;;4.25;3.85;;;;;;;16.65;48.93;101111.72;4928953;29;20051;-85
2022/05/01 02:26:07;;;;;;;7.88;3.90;;;;;;;16.76;48.46;101124.84;4928908;29;20063;-84
2022/05/01 02:28:34;;;;;;;4.18;3.78;;;;;;;16.99;48.88;101168.00;4912035;29;20055;-84
2022/05/01 02:31:00;;;;;;;6.90;3.78;;;;;;;16.98;49.68;101170.84;4913139;29;20261;-84
2022/05/01 02:33:27;;;;;;;5.45;3.88;;;;;;;16.96;49.78;101170.16;4913316;29;20380;-83
2022/05/01 02:35:54;;;;;;;4.15;3.63;;;;;;;16.92;49.29;101169.66;4919546;28;20405;-83
2022/05/01 02:38:20;;;;;;;4.25;3.80;;;;;;;16.47;48.10;101085.06;4934121;29;20445;-83
2022/05/01 02:40:47;;;;;;;3.83;3.53;;;;;;;16.92;48.18;101161.63;4934337;29;20052;-84
2022/05/01 02:43:14;;;;;;;5.78;3.90;;;;;;;16.85;48.79;101142.66;4949470;28;20047;-84
2022/05/01 02:45:40;;;;;;;5.30;3.50;;;;;;;16.84;48.30;101151.69;4932098;29;20137;-84
2022/05/01 02:48:08;;;;;;;4.05;3.50;;;;;;;16.83;48.40;101165.28;4949027;28;20058;-83
2022/05/01 02:50:34;;;;;;;4.18;3.55;;;;;;;16.85;48.46;101174.84;4931764;29;20056;-83
2022/05/01 02:53:04;;;;;;;3.90;3.50;;;;;;;16.26;49.01;101077.44;4949035;29;20055;-84
2022/05/01 02:55:32;;;;;;;3.92;3.60;;;;;;;16.69;48.88;101142.56;4948339;28;20051;-83
2022/05/01 02:57:59;;;;;;;5.50;3.88;;;;;;;16.65;49.16;101151.94;4931635;29;20054;-83
2022/05/01 03:00:26;;;;;;;3.60;3.30;;;;;;;16.82;49.47;101172.50;4931287;28;20050;-84
2022/05/01 03:02:55;;;;;;;3.78;3.33;;;;;;;16.32;48.21;101063.41;4931581;29;20352;-84
2022/05/01 03:05:26;;;;;;;3.85;3.20;;;;;;;17.08;47.51;101156.25;4948714;29;20059;-84
2022/05/01 03:07:56;;;;;;;4.22;3.83;;;;;;;17.15;47.93;101175.22;4949081;28;20485;-83
2022/05/01 03:10:23;;;;;;;3.78;3.05;;;;;;;17.13;48.19;101171.03;4948288;28;20364;-84
2022/05/01 03:12:49;;;;;;;3.95;3.65;;;;;;;16.71;48.84;101113.75;4931343;29;20302;-83
2022/05/01 03:15:16;;;;;;;4.97;3.42;;;;;;;16.87;48.86;101153.22;4948418;28;20048;-83
2022/05/01 03:23:14;;;;;;;3.95;3.50;;;;;;;16.78;49.02;101152.34;4948690;28;20051;-84
2022/05/01 03:25:40;;;;;;;4.70;4.28;;;;;;;16.66;48.78;101126.81;4931279;29;20196;-84
2022/05/01 03:28:07;;;;;;;5.10;3.30;;;;;;;16.59;49.59;101123.13;4931510;28;20050;-84
2022/05/01 03:30:34;;;;;;;4.10;3.70;;;;;;;16.82;49.44;101163.59;4931443;29;20305;-85
2022/05/01 03:33:04;;;;;;;6.82;3.63;;;;;;;16.59;49.70;101117.75;4931261;29;20055;-86
2022/05/01 03:35:31;;;;;;;3.75;3.45;;;;;;;16.80;49.77;101161.09;4931311;28;20043;-85
2022/05/01 03:37:58;;;;;;;7.00;3.60;;;;;;;16.85;48.80;101158.75;4948808;28;20058;-84
2022/05/01 03:40:24;;;;;;;3.92;3.58;;;;;;;16.50;48.75;101102.66;4932767;29;20059;-84
2022/05/01 03:42:51;;;;;;;5.45;3.78;;;;;;;16.60;48.16;101108.69;4937624;28;20108;-83
2022/05/01 03:45:18;;;;;;;3.40;3.10;;;;;;;16.81;47.47;101146.66;4940275;28;20066;-84
2022/05/01 03:47:46;;;;;;;5.97;3.25;;;;;;;16.90;46.79;101155.56;4952181;28;20059;-84
2022/05/01 03:50:12;;;;;;;3.58;3.28;;;;;;;16.88;47.23;101160.25;4931283;28;20051;-86
2022/05/01 03:52:39;;;;;;;4.82;3.83;;;;;;;16.82;46.96;101147.50;4928242;29;20095;-83
2022/05/01 03:55:07;;;;;;;4.97;3.63;;;;;;;16.86;46.89;101149.69;4912342;29;20043;-85
2022/05/01 03:57:34;;;;;;;3.85;3.35;;;;;;;16.70;47.15;101125.50;4929354;29;20103;-85
2022/05/01 04:00:02;;;;;;;5.00;3.58;;;;;;;16.72;47.05;101125.31;4929439;29;20055;-84
2022/05/01 04:02:28;;;;;;;3.47;3.17;;;;;;;16.81;46.90;101143.97;4912821;29;20358;-85
2022/05/01 04:04:57;;;;;;;4.60;3.50;;;;;;;16.89;47.84;101153.88;4912416;29;20131;-84
2022/05/01 04:07:24;;;;;;;3.65;3.35;;;;;;;16.42;47.58;101082.88;4935512;29;20502;-85
2022/05/01 04:09:51;;;;;;;5.03;3.88;;;;;;;16.85;47.65;101148.03;4924296;29;20054;-84
2022/05/01 04:12:18;;;;;;;3.75;2.88;;;;;;;16.27;47.65;101068.41;4954777;29;20039;-85
2022/05/01 04:14:44;;;;;;;3.42;3.10;;;;;;;16.52;48.62;101114.06;4972259;28;20047;-85
2022/05/01 04:17:11;;;;;;;5.28;3.72;;;;;;;16.71;48.76;101140.56;4950022;28;20489;-84
2022/05/01 04:19:38;;;;;;;5.47;3.47;;;;;;;16.79;48.86;101147.81;4931184;29;20054;-84
2022/05/01 04:22:04;;;;;;;3.75;2.75;;;;;;;16.82;47.98;101159.09;4930946;28;20059;-84
2022/05/01 04:24:31;;;;;;;4.82;3.75;;;;;;;16.69;47.86;101137.22;4931431;29;20051;-84
2022/05/01 04:26:58;;;;;;;4.40;3.65;;;;;;;16.87;48.01;101163.97;4934619;28;20074;-84
2022/05/01 04:29:36;;;;;;;5.15;3.05;;;;;;;16.93;48.32;101167.81;4934437;29;20054;-84
2022/05/01 04:32:05;;;;;;;9.32;3.83;;;;;;;17.07;47.85;101162.63;4951569;28;20105;-83
2022/05/01 04:34:35;;;;;;;5.55;4.35;;;;;;;17.03;48.59;101163.97;4933858;28;20066;-83
2022/05/01 04:37:02;;;;;;;5.15;3.70;;;;;;;16.91;48.51;101162.59;4932674;28;20057;-83
2022/05/01 04:39:28;;;;;;;5.00;3.65;;;;;;;16.59;48.71;101107.03;4933395;28;20043;-83
2022/05/01 04:41:55;;;;;;;5.18;3.80;;;;;;;16.79;48.93;101143.28;4969384;28;20082;-84
2022/05/01 04:44:22;;;;;;;6.57;4.00;;;;;;;16.61;49.43;101129.16;4951738;28;20051;-83
2022/05/01 04:46:50;;;;;;;3.85;3.55;;;;;;;16.69;50.42;101147.09;4969366;28;20047;-84
2022/05/01 04:49:20;;;;;;;4.05;3.65;;;;;;;16.38;50.38;101105.66;4969274;28;20051;-84
2022/05/01 04:51:47;;;;;;;5.82;3.85;;;;;;;16.64;50.76;101151.09;4952079;28;20074;-85
2022/05/01 04:54:14;;;;;;;6.90;4.05;;;;;;;16.72;50.75;101168.22;4949503;28;20050;-84
2022/05/01 04:59:26;;;;;;;4.53;4.13;;;;;;;16.77;50.34;101173.94;4970165;28;20050;-85
2022/05/01 05:01:53;;;;;;;6.53;3.88;;;;;;;16.52;50.63;101143.53;4970003;28;20075;-84
2022/05/01 05:04:20;;;;;;;5.05;3.97;;;;;;;16.50;50.60;101145.53;4953050;28;20050;-84
2022/05/01 05:06:47;;;;;;;5.95;3.88;;;;;;;16.37;50.70;101120.03;4961902;28;20055;-85
2022/05/01 05:11:58;;;;;;;6.45;4.53;;;;;;;16.29;50.93;101103.94;4950607;28;20083;-84
2022/05/01 05:14:25;;;;;;;5.25;3.97;;;;;;;16.64;50.64;101164.50;4932469;28;20058;-84
2022/05/01 05:16:52;;;;;;;4.43;4.00;;;;;;;16.36;50.35;101123.72;4932237;29;20055;-85
2022/05/01 05:19:18;;;;;;;4.90;4.40;;;;;;;16.64;50.48;101159.16;4933235;29;20051;-83
2022/05/01 05:21:45;;;;;;;4.57;4.13;;;;;;;16.76;50.14;101181.13;4949240;28;20051;-85
2022/05/01 05:24:22;;;;;;;5.60;4.32;;;;;;;16.61;50.76;101145.25;4933422;29;20569;-83
2022/05/01 05:26:48;;;;;;;4.32;3.75;;;;;;;17.09;50.03;101205.41;4932468;29;20043;-84
2022/05/01 05:29:15;;;;;;;8.55;4.50;;;;;;;16.47;50.60;101119.06;4949729;28;20482;-84
2022/05/01 05:31:42;;;;;;;4.88;4.38;;;;;;;16.74;50.57;101159.00;4932766;29;20452;-85
2022/05/01 05:34:09;;;;;;;4.72;4.22;;;;;;;17.00;51.21;101209.91;4931822;29;20052;-85
2022/05/01 05:36:35;;;;;;;6.28;5.10;;;;;;;16.75;51.99;101178.59;4949051;28;20055;-85
2022/05/01 05:39:02;;;;;;;5.70;5.20;;;;;;;16.95;52.09;101217.59;4931750;29;20087;-85
2022/05/01 05:41:29;;;;;;;12.95;4.68;;;;;;;16.60;52.43;101159.63;4949813;28;20074;-85
2022/05/01 05:43:56;;;;;;;6.50;5.30;;;;;;;16.86;52.48;101195.28;4937722;28;20047;-84
2022/05/01 05:46:27;;;;;;;7.85;5.30;;;;;;;16.14;52.59;101089.44;4943268;29;20055;-85
2022/05/01 05:48:54;;;;;;;4.97;4.57;;;;;;;16.78;52.87;101199.75;4940735;29;20051;-85
2022/05/01 05:51:21;;;;;;;5.50;4.30;;;;;;;16.57;53.63;101170.69;4951080;28;20074;-84
2022/05/01 05:53:51;;;;;;;5.15;4.50;;;;;;;16.63;53.98;101178.94;4931426;29;20070;-84
2022/05/01 05:56:20;;;;;;;4.72;4.32;;;;;;;16.91;53.22;101218.09;4931340;29;20078;-85
2022/05/01 05:58:47;;;;;;;4.20;3.80;;;;;;;16.77;51.73;101193.56;4949774;29;20250;-84
2022/05/01 06:01:14;;;;;;;5.75;4.38;;;;;;;16.56;50.37;101147.56;4938058;29;20103;-84
2022/05/01 06:03:41;;;;;;;4.55;3.80;;;;;;;16.98;50.56;101214.59;4933758;29;20263;-84
2022/05/01 06:06:08;;;;;;;4.57;4.00;;;;;;;16.84;50.22;101189.22;4948822;29;20134;-84
2022/05/01 06:08:36;;;;;;;5.82;4.28;;;;;;;17.12;49.60;101218.47;4932681;29;20055;-85
2022/05/01 06:11:02;;;;;;;8.68;4.53;;;;;;;17.07;49.95;101216.28;4932167;28;20410;-84
2022/05/01 06:13:29;;;;;;;4.00;3.63;;;;;;;16.76;50.26;101143.59;4932239;29;20058;-84
2022/05/01 06:15:57;;;;;;;5.45;4.45;;;;;;;17.37;49.24;101226.56;4932098;29;20044;-84
2022/05/01 06:18:24;;;;;;;6.57;4.03;;;;;;;17.12;49.82;101207.75;4949738;28;20047;-84
2022/05/01 06:20:50;;;;;;;6.35;3.78;;;;;;;16.91;50.07;101159.91;4932614;29;20125;-85
2022/05/01 06:23:21;;;;;;;4.95;4.45;;;;;;;16.93;50.24;101175.84;4932949;29;20862;-84
2022/05/01 06:25:48;;;;;;;6.72;4.75;;;;;;;17.15;49.78;101206.59;4949711;28;20707;-84
2022/05/01 06:28:16;;;;;;;4.30;3.90;;;;;;;16.87;50.23;101166.63;4932026;29;20489;-82
2022/05/01 06:30:45;;;;;;;6.30;4.22;;;;;;;17.26;50.37;101235.78;4932215;28;20066;-84
2022/05/01 06:33:15;;;;;;;5.60;4.28;;;;;;;17.49;49.85;101244.03;4931696;29;20066;-83
2022/05/01 06:35:42;;;;;;;4.75;4.25;;;;;;;17.47;49.90;101238.81;4948917;28;20413;-84
2022/05/01 06:38:10;;;;;;;4.53;4.13;;;;;;;17.25;50.27;101218.84;4948764;28;20059;-84
2022/05/01 06:40:39;;;;;;;4.47;3.67;;;;;;;17.31;51.24;101249.56;4949287;28;20146;-84
2022/05/01 06:43:07;;;;;;;6.07;4.70;;;;;;;17.19;50.42;101206.09;4932043;29;20449;-84
2022/05/01 06:45:34;;;;;;;5.63;5.07;;;;;;;17.38;50.64;101244.34;4931922;29;20055;-84
2022/05/01 06:48:01;;;;;;;5.78;5.20;;;;;;;16.98;50.54;101178.88;4931472;29;20121;-84
2022/05/01 06:50:29;;;;;;;8.30;6.38;;;;;;;17.02;50.39;101189.13;4931747;29;20050;-85
2022/05/01 06:52:55;;;;;;;9.65;6.28;;;;;;;17.43;50.98;101258.13;4931574;29;20054;-84
2022/05/01 06:55:25;;;;;;;9.65;8.82;;;;;;;16.87;51.04;101151.38;4948304;28;20047;-85
2022/05/01 06:57:53;;;;;;;11.23;9.77;;;;;;;17.52;51.82;101257.13;4931572;28;20063;-84
2022/05/01 07:00:21;;;;;;;12.23;9.32;;;;;;;17.46;52.12;101258.63;4931575;29;20122;-84
2022/05/01 07:02:49;;;;;;;11.30;10.05;;;;;;;17.37;52.56;101242.69;4931040;29;20059;-84
2022/05/01 07:05:18;;;;;;;11.05;10.02;;;;;;;17.35;52.83;101228.59;4948525;28;20047;-85
2022/05/01 07:07:48;;;;;;;12.18;11.10;;;;;;;17.34;52.78;101200.91;4931781;29;20055;-84
2022/05/01 07:10:16;;;;;;;12.70;11.50;;;;;;;17.52;53.12;101224.91;4927027;29;20059;-83
2022/05/01 07:12:43;;;;;;;14.00;12.63;;;;;;;17.55;53.11;101227.28;4929581;29;20062;-83
2022/05/01 07:15:10;;;;;;;15.80;12.10;;;;;;;17.39;53.13;101208.47;4912698;29;20056;-84
2022/05/01 07:17:37;;;;;;;13.85;12.38;;;;;;;17.44;53.70;101230.28;4912867;29;20102;-84
2022/05/01 07:20:04;;;;;;;14.45;13.05;;;;;;;17.47;53.22;101216.50;4912752;29;20052;-84
2022/05/01 07:22:31;;;;;;;14.18;12.82;;;;;;;17.68;53.54;101246.41;4912323;29;20528;-84
2022/05/01 07:24:58;;;;;;;16.92;13.30;;;;;;;17.78;52.89;101226.59;4912785;29;20104;-84
2022/05/01 07:27:24;;;;;;;15.35;13.90;;;;;;;17.44;52.71;101164.00;4912614;29;20051;-83
2022/05/01 07:29:51;;;;;;;16.17;14.65;;;;;;;18.03;52.21;101251.63;4912469;29;20067;-83
2022/05/01 07:32:23;;;;;;;15.82;14.15;;;;;;;17.83;52.29;101202.78;4913169;29;20048;-84
2022/05/01 07:34:50;;;;;;;14.05;12.75;;;;;;;18.06;52.03;101237.84;4912647;29;20052;-84
2022/05/01 07:37:20;;;;;;;15.68;14.07;;;;;;;17.80;52.27;101201.28;4911985;29;20146;-84
2022/05/01 07:39:47;;;;;;;15.95;13.85;;;;;;;18.11;51.96;101236.34;4912494;29;20048;-84
2022/05/01 07:42:14;;;;;;;15.60;14.00;;;;;;;17.97;52.29;101199.41;4929430;29;20043;-85
2022/05/01 07:44:41;;;;;;;15.05;13.55;;;;;;;17.92;51.87;101177.59;4912592;29;20064;-83
2022/05/01 07:47:07;;;;;;;14.63;13.15;;;;;;;18.32;51.84;101226.88;4912467;29;20437;-83
2022/05/01 07:49:34;;;;;;;14.55;13.05;;;;;;;18.37;51.49;101221.81;4912261;29;20051;-85
2022/05/01 07:52:01;;;;;;;13.95;12.63;;;;;;;18.53;51.00;101245.97;4912668;29;20601;-85
2022/05/01 07:54:28;;;;;;;15.13;13.63;;;;;;;18.36;51.38;101212.94;4930641;29;20051;-84
2022/05/01 07:56:54;;;;;;;15.50;12.13;;;;;;;17.95;51.51;101145.03;4931733;29;20421;-84
2022/05/01 07:59:21;;;;;;;13.80;12.30;;;;;;;18.64;50.40;101236.72;4933533;29;20079;-85
2022/05/01 08:01:47;;;;;;;14.05;12.65;;;;;;;18.84;49.76;101242.53;4938816;29;20063;-84
2022/05/01 08:04:30;;;;;;;12.25;11.15;;;;;;;18.69;50.05;101233.47;4956029;28;20397;-84
2022/05/01 08:06:58;;;;;;;14.68;13.27;;;;;;;18.29;50.76;101165.41;4952965;28;20051;-84
2022/05/01 08:09:26;;;;;;;14.38;13.05;;;;;;;18.85;50.17;101232.59;4933663;29;20071;-84
2022/05/01 08:11:53;;;;;;;14.40;12.90;;;;;;;18.83;50.21;101240.00;4967076;28;20047;-84
2022/05/01 08:14:21;;;;;;;14.43;13.02;;;;;;;18.78;50.07;101217.16;4954776;28;20051;-85
2022/05/01 08:16:49;;;;;;;13.48;12.13;;;;;;;18.56;50.34;101201.75;4953151;28;20050;-85
2022/05/01 08:22:06;;;;;;;14.75;13.18;;;;;;;18.84;49.51;101237.16;4971007;28;20093;-84
2022/05/01 08:24:34;;;;;;;13.80;12.50;;;;;;;18.79;50.09;101244.91;4971253;28;20509;-83
2022/05/01 08:27:05;;;;;;;18.83;12.70;;;;;;;18.28;50.28;101150.31;4953880;28;20058;-83
2022/05/01 08:29:33;;;;;;;15.60;13.90;;;;;;;18.77;49.17;101202.03;4953245;28;20065;-83
2022/05/01 08:32:00;;;;;;;15.20;13.65;;;;;;;18.78;50.41;101225.22;4953664;28;20053;-84
2022/05/01 08:34:27;;;;;;;14.25;12.95;;;;;;;18.88;49.50;101219.63;4954454;28;20047;-83
2022/05/01 08:36:55;;;;;;;18.17;14.35;;;;;;;19.04;49.60;101231.34;4962847;28;20311;-83
2022/05/01 08:39:22;;;;;;;15.52;13.98;;;;;;;19.00;49.16;101231.72;4953196;28;20106;-84
2022/05/01 08:41:48;;;;;;;14.50;13.02;;;;;;;19.03;48.87;101235.91;4951539;28;20449;-83
2022/05/01 08:44:24;;;;;;;14.18;12.85;;;;;;;19.10;48.56;101230.63;4935007;28;20055;-82
2022/05/01 08:47:23;;;;;;;14.80;13.27;;;;;;;19.08;48.82;101243.41;4936442;28;20401;-82
2022/05/01 08:49:55;;;;;;;15.95;14.35;;;;;;;19.15;48.91;101241.69;4949273;28;20054;-85
2022/05/01 08:52:23;;;;;;;15.80;13.38;;;;;;;19.27;48.92;101237.56;4952478;28;20058;-84
2022/05/01 08:54:51;;;;;;;15.23;13.02;;;;;;;19.22;48.83;101231.88;4952976;28;20058;-85
2022/05/01 08:57:21;;;;;;;13.80;12.40;;;;;;;19.28;48.44;101244.66;4935776;28;20047;-83
2022/05/01 08:59:54;;;;;;;16.70;12.70;;;;;;;19.03;48.30;101183.91;4934952;29;20066;-85
2022/05/01 09:02:21;;;;;;;13.30;11.95;;;;;;;19.35;48.78;101226.78;4934280;28;20297;-85
2022/05/01 09:04:50;;;;;;;14.20;12.73;;;;;;;19.39;48.76;101244.25;4934025;28;20055;-84
2022/05/01 09:07:17;;;;;;;14.18;12.77;;;;;;;19.43;48.79;101253.63;4933718;29;20062;-83
2022/05/01 09:09:43;;;;;;;15.27;12.05;;;;;;;19.37;49.09;101238.19;4933288;29;20252;-83
2022/05/01 09:14:56;;;;;;;13.07;10.32;;;;;;;19.27;48.45;101216.03;4950538;28;20058;-83
2022/05/01 09:17:25;;;;;;;11.88;10.70;;;;;;;19.50;48.16;101239.47;4933441;28;20121;-82
2022/05/01 09:20:03;;;;;;;12.15;9.98;;;;;;;19.41;47.56;101212.56;4950525;29;20047;-83
2022/05/01 09:22:48;;;;;;;12.40;11.20;;;;;;;19.65;47.64;101230.41;4950912;29;20295;-84
2022/05/01 09:25:16;;;;;;;10.75;9.75;;;;;;;19.55;47.27;101213.66;4933628;29;20047;-83
2022/05/01 09:27:43;;;;;;;11.52;10.52;;;;;;;19.72;48.04;101238.63;4950518;28;20319;-85
2022/05/01 09:30:12;;;;;;;12.43;11.07;;;;;;;19.64;47.92;101230.59;4933773;29;20091;-83
2022/05/01 09:32:41;;;;;;;10.57;9.63;;;;;;;19.63;48.65;101232.44;4933843;29;20051;-83
2022/05/01 09:35:33;;;;;;;10.80;9.85;;;;;;;19.70;48.35;101248.75;4933060;28;20058;-85
2022/05/01 09:38:25;;;;;;;11.25;10.27;;;;;;;19.71;47.95;101245.06;4930663;29;20051;-83
2022/05/01 09:41:02;;;;;;;11.50;10.40;;;;;;;19.11;48.42;101130.88;4931956;29;20047;-83
2022/05/01 09:43:45;;;;;;;12.73;11.43;;;;;;;19.78;47.69;101228.97;4951136;28;20055;-84
2022/05/01 09:46:14;;;;;;;12.60;11.32;;;;;;;19.87;47.58;101237.84;4934060;28;20560;-83
2022/05/01 09:48:43;;;;;;;11.88;10.32;;;;;;;19.93;47.53;101227.19;4934149;29;20058;-85
2022/05/01 09:51:17;;;;;;;12.30;10.77;;;;;;;19.55;47.29;101161.66;4933123;28;20058;-87
2022/05/01 09:53:45;;;;;;;12.40;11.13;;;;;;;20.13;47.18;101249.06;4929451;29;20051;-85
2022/05/01 09:56:12;;;;;;;12.10;10.95;;;;;;;19.61;47.26;101152.84;4913817;29;20048;-84
2022/05/01 09:58:43;;;;;;;14.23;12.73;;;;;;;20.07;46.26;101212.03;4929959;29;20047;-84
2022/05/01 10:01:12;;;;;;;12.33;11.13;;;;;;;20.18;45.91;101225.06;4913020;29;20063;-84
2022/05/01 10:03:46;;;;;;;12.90;9.50;;;;;;;20.38;44.89;101246.09;4927987;29;20063;-84
2022/05/01 10:06:16;;;;;;;11.90;10.80;;;;;;;20.23;45.18;101246.91;4912068;29;20473;-84
2022/05/01 10:08:45;;;;;;;11.20;9.93;;;;;;;19.88;45.35;101164.06;4913674;29;20071;-85
2022/05/01 10:11:18;;;;;;;14.18;10.52;;;;;;;20.43;45.53;101236.41;4922991;29;20061;-83
2022/05/01 10:13:46;;;;;;;10.75;9.65;;;;;;;20.20;45.25;101196.06;4914000;29;20481;-84
2022/05/01 10:16:15;;;;;;;11.88;10.73;;;;;;;20.48;44.73;101227.78;4915347;29;20054;-83
2022/05/01 10:18:48;;;;;;;11.43;10.23;;;;;;;20.49;44.15;101219.50;4931483;29;20514;-85
2022/05/01 10:21:36;;;;;;;11.65;10.55;;;;;;;20.63;44.79;101244.84;4916475;29;20395;-84
2022/05/01 10:24:04;;;;;;;12.32;11.15;;;;;;;20.69;45.25;101227.88;4913089;29;20062;-83
2022/05/01 10:26:34;;;;;;;10.73;9.63;;;;;;;20.77;44.23;101234.22;4929996;29;20051;-83
2022/05/01 10:29:31;;;;;;;10.73;9.68;;;;;;;20.42;43.25;101178.13;4913762;29;20051;-84
2022/05/01 10:34:58;;;;;;;10.80;9.73;;;;;;;20.71;44.10;101219.63;4930060;29;20525;-83
2022/05/01 10:37:55;;;;;;;;;;;;;;;20.36;44.99;101168.06;4914042;29;20050;-84
2022/05/01 10:40:22;;;;;;;12.35;11.15;;;;;;;20.45;43.98;101166.13;4913523;29;20396;-84
2022/05/01 10:42:49;;;;;;;11.85;10.73;;;;;;;20.82;43.93;101226.38;4930325;29;20757;-83
2022/05/01 10:45:22;;;;;;;10.90;9.85;;;;;;;20.86;44.44;101219.59;4928995;29;20819;-85
2022/05/01 10:47:52;;;;;;;9.55;8.60;;;;;;;20.80;43.08;101207.69;4912876;29;20055;-84
2022/05/01 10:50:27;;;;;;;11.13;9.48;;;;;;;20.82;42.23;101194.00;4929311;29;20497;-84
2022/05/01 10:53:14;;;;;;;10.57;9.57;;;;;;;20.39;42.78;101118.31;4915790;29;20056;-84
2022/05/01 10:55:47;;;;;;;9.93;8.60;;;;;;;20.80;42.69;101186.13;4913235;29;20197;-83
2022/05/01 10:58:23;;;;;;;11.40;9.52;;;;;;;21.11;42.38;101198.47;4930496;29;20059;-82
2022/05/01 11:00:51;;;;;;;13.02;8.55;;;;;;;21.10;41.78;101170.66;4914096;29;20494;-84
2022/05/01 11:03:30;;;;;;;10.02;8.98;;;;;;;21.29;42.45;101160.25;4914605;29;20055;-85
2022/05/01 11:06:00;;;;;;;11.73;8.90;;;;;;;21.68;43.16;101191.38;4913626;29;20059;-84
2022/05/01 11:08:30;;;;;;;12.00;10.32;;;;;;;21.91;42.14;101189.25;4912756;29;20059;-84
2022/05/01 11:10:58;;;;;;;10.65;9.43;;;;;;;21.97;41.92;101179.53;4922921;29;20058;-81
2022/05/01 11:13:31;;;;;;;10.43;9.48;;;;;;;21.67;41.25;101144.59;4933791;29;20054;-83
2022/05/01 11:15:59;;;;;;;10.60;9.55;;;;;;;21.43;41.55;101109.91;4932021;29;20309;-83
2022/05/01 11:18:33;;;;;;;11.18;10.15;;;;;;;21.55;42.40;101119.16;4948308;28;20501;-84
2022/05/01 11:21:21;;;;;;;12.63;9.63;;;;;;;22.02;41.86;101165.44;4931359;29;20043;-84
2022/05/01 11:23:59;;;;;;;9.68;8.77;;;;;;;21.98;42.59;101171.22;4931517;28;20055;-82
2022/05/01 11:26:26;;;;;;;10.93;9.82;;;;;;;21.69;41.41;101093.06;4930899;28;20482;-83
2022/05/01 11:29:13;;;;;;;10.43;9.48;;;;;;;22.02;41.55;101151.91;4948633;29;20043;-84
2022/05/01 11:31:41;;;;;;;12.25;10.95;;;;;;;22.15;41.20;101154.69;4948219;29;20417;-84
2022/05/01 11:34:17;;;;;;;10.55;9.50;;;;;;;22.17;41.29;101155.31;4933008;28;20055;-84
2022/05/01 11:37:09;;;;;;;9.85;8.93;;;;;;;22.23;41.24;101149.13;4934838;29;20293;-83
2022/05/01 11:39:54;;;;;;;9.93;8.93;;;;;;;22.34;41.52;101135.06;4935436;29;20066;-83
2022/05/01 11:42:24;;;;;;;9.35;8.55;;;;;;;22.57;40.64;101136.59;4935280;29;20512;-84
2022/05/01 11:44:55;;;;;;;8.52;7.72;;;;;;;22.12;39.95;101052.34;4952317;28;20051;-84
2022/05/01 11:47:23;;;;;;;;;;;;;;;22.82;39.24;101126.06;4952851;28;20051;-83
2022/05/01 11:49:51;;;;;;;9.90;8.93;;;;;;;22.93;39.23;101111.09;4935275;29;19926;-84
2022/05/01 11:52:18;;;;;;;9.52;8.38;;;;;;;;;;4935070;29;20054;-84
2022/05/01 11:55:06;;;;;;;8.30;7.55;;;;;;;23.29;38.75;101107.22;4934697;29;20063;-84
2022/05/01 12:03:09;;;;;;;9.30;7.68;;;;;;;24.03;37.40;101106.06;4952093;28;20398;-83
2022/05/01 12:05:44;;;;;;;7.68;6.90;;;;;;;23.85;36.51;101049.84;4935566;28;20333;-83